Vadito, NM (87579)

10:18 AM MDT on June 02, 2015 (GMT -0600)
Bell Mountain Ranch | | Change Station
CLOSE
Current Station
Personal Weather Station
Location: Vadito, NM
Elevation: 7660 ft
Nearby Weather Stations

Elev 7660 ft 36.19 °N, 105.66 °W | Updated 3 minutes ago

Clear
Clear
70.2 °F
Feels Like 73 °F
N
4.5
Wind Variable Wind from West
Gusts 10.7 mph

Today
High -- | Low -- °F
--% Chance of Precip.
Yesterday
High -- | Low -- °F
Precip. -- in
5:46 AM 8:15 PM
Full, 100% visible
Pressure 30.26 in
Visibility 10.0 miles
Clouds Clear
Heat Index 73 °F
Dew Point 22 °F
Humidity 16%
Rainfall 0.00 in
Snow Depth Not available.
UV 9 out of 12
Pollen 5.70 out of 12
Air Quality Not available.
Flu Activity Sporadic
METAR KSKX 021615Z AUTO 22008KT 10SM CLR 19/03 A3026 RMK AO1

More Conditions Fewer Conditions

Pressure 30.26 in
Visibility 10.0 miles
Clouds Clear
Heat Index 73 °F
Dew Point 22 °F
Humidity 16%
Rainfall 0.00 in
Snow Depth Not available.
UV 9 out of 12
Pollen 5.70 out of 12
Air Quality Not available.
Flu Activity Sporadic
METAR KSKX 021615Z AUTO 22008KT 10SM CLR 19/03 A3026 RMK AO1

More Conditions Fewer Conditions

10-Day Weather Forecast

Almanac

Astronomy

Jun. 02, 2015 Rise Set
Actual Time
Civil Twilight
Nautical Twilight
Astronomical Twilight
Moon
Length of Visible Light
Length of Day
Tomorrow will be .
, % of the Moon is Illuminated

Today's Extremes

State Highs State Lows

Community

WunderPhotos

Upload Photos

1,825,973 photos uploaded!

WunderBlogs® & News

Nearby

Air Quality

  Air Quality AQ Index Pollutant
Not available.

Snow Depth

Station Depth Elevation

Earthquake Activity

City Distance Mag. Time & Date
Minimum magnitude displayed is 2.5.

Coastal Water Temperatures

Place Temperature

Stations

Nearby Weather Stations

Station Location Temp. Windchill Dew Point Humidity Wind Precip. Elev Updated Type